West Hickory, Pennsylvania
Current Conditions -  °F | °C
As of 12:55 PM on Friday 28 Nov 2014 (Local Time) from KFKL Reporting Station
Overcast Overcast  
Wind Chill: 15°   Ceiling: 2900
Heat Index: 23°   Visibility: 9mi
Dew Point: 14°   Wind: 7mph
Humidity: 68%   Direction: 260°W
Pressure: 30.23"   Gusts: NA
Location:  41.57°N, 79.41°W
Report Text: KFKL 281755Z AUTO 26006KT 9SM SCT023 BKN029 OVC110 M05/M10 A3023 RMK AO1 11040 21070 57017
Loading
Personal Weather Stations






























Interactive Weather Map New forecast layout! Learn more

10-Day Weather Forecast

Advertisements
Track Severe Weather on mobile